CheckWX is a tool to help pilots better visualize weather data.  It is not intended as a substitute for an official pre-flight weather briefing.

10:32:52 UTC

KSLC TAF
Salt Lake City International Airport
Salt Lake City, Utah, USA
KSLC 260928Z 2609/2712 15008KT P6SM SCT150 FM261400 16012G20KT P6SM FEW200 FM261800 17020G28KT P6SM SCT200 FM270200 17014G22KT P6SM SCT200

Jun-26@
09:00 UTC

Jun-26 @ 09:00 UTC

Jun-26@
14:00 UTC

Jun-26 @ 14:00 UTC

KSLC 260928Z 2609/2712 15008KT P6SM SCT150
Wind
  • 150° at 8 KTS
Cloud Levels
  • Scattered at 15,000' AGL

Jun-26@
14:00 UTC

Jun-26 @ 14:00 UTC

Jun-26@
18:00 UTC

Jun-26 @ 18:00 UTC

FM261400 16012G20KT P6SM FEW200

From

From Standard forecast or significant change

Wind
  • 160° at 12 KTS
  • {Gusting to 20 KTS
Cloud Levels
  • Few at 20,000' AGL

Jun-26@
18:00 UTC

Jun-26 @ 18:00 UTC

Jun-27@
02:00 UTC

Jun-27 @ 02:00 UTC

FM261800 17020G28KT P6SM SCT200

From

From Standard forecast or significant change

Wind
  • 170° at 20 KTS
  • {Gusting to 28 KTS
Cloud Levels
  • Scattered at 20,000' AGL

Jun-27@
02:00 UTC

Jun-27 @ 02:00 UTC

Jun-27@
12:00 UTC

Jun-27 @ 12:00 UTC

FM270200 17014G22KT P6SM SCT200

From

From Standard forecast or significant change

Wind
  • 170° at 14 KTS
  • {Gusting to 22 KTS
Cloud Levels
  • Scattered at 20,000' AGL